메인 페이지
METAR-TAF:

METAR-TAF

공항 :

공군기지

산투스, 상파울루, 브라질

위도: 23-56S, 경도: 046-18W, 고도: 3m

현재 날씨관측

예보는 13 시간 19분 전, 21:00시(UTC)에 발표되었습니다.
남남동6kt
온도 28°C
습도 70%
기압 1009 hPa
시정 10km 이상
1500m 미만 상공 구름 및 적란운 없음

METAR: SBST 312100Z 15006KT CAVOK 28/22 Q1009

시각: 08:19 (10:19 UTC)


TAF: 누락

4,000개 이상의 공항 관측 자료 및 예보 (METAR 및 TAF 보고).

지도상에서 검색 가능한 기상관측소가 노란 점과 빨간 점으로 표시되어 있습니다.

기상관측소 명을 보려면 표시 위로 마우스를 이동하세요.

날씨 관측과 예보를 보려면 클릭하세요.

지도 변경 : 확대하려면 엑스 표시가 있는 녹색 버튼, 축소하려면 빼기 표시가 있는 녹색 버튼, 다음 페이지의 지도를 보려면 녹색 화살표를 클릭하세요.


METAR-TAF: